createdAt,value
2022-09-20T00:04:44.693Z,102212.34
2022-09-20T00:09:46.291Z,102212.94
2022-09-20T00:14:47.748Z,102209.53
2022-09-20T00:19:49.224Z,102209.06
2022-09-20T00:24:50.687Z,102208.66
2022-09-20T00:29:53.217Z,102206.66
2022-09-20T00:35:10.962Z,102198.75
2022-09-20T00:40:17.584Z,102205.41
2022-09-20T00:45:27.696Z,102216.03
2022-09-20T00:50:29.673Z,102214.88
2022-09-20T00:55:31.905Z,102201.50
2022-09-20T01:00:33.472Z,102204.22
2022-09-20T01:05:36.353Z,102201.66
2022-09-20T01:10:38.388Z,102193.88
2022-09-20T01:15:40.598Z,102185.50
2022-09-20T01:20:44.669Z,102185.91
2022-09-20T01:25:51.854Z,102191.50
2022-09-20T01:31:25.687Z,102191.91
2022-09-20T01:36:37.020Z,102189.13
2022-09-20T01:41:48.779Z,102203.78
2022-09-20T01:47:00.589Z,102203.84
2022-09-20T01:52:39.565Z,102186.81
2022-09-20T01:58:15.430Z,102195.22
2022-09-20T02:03:52.237Z,102193.59
2022-09-20T02:09:18.173Z,102196.38
2022-09-20T02:15:04.090Z,102197.31
2022-09-20T02:20:42.906Z,102204.41
2022-09-20T02:26:17.663Z,102202.38
2022-09-20T02:31:55.117Z,102198.31
2022-09-20T02:37:22.678Z,102201.28
2022-09-20T02:42:48.114Z,102196.44
2022-09-20T02:47:49.910Z,102206.03
2022-09-20T02:53:19.251Z,102215.59
2022-09-20T02:58:46.306Z,102209.97
2022-09-20T03:04:14.890Z,102218.06
2022-09-20T03:09:25.933Z,102217.25
2022-09-20T03:14:47.901Z,102212.00
2022-09-20T03:20:08.663Z,102215.91
2022-09-20T03:25:37.927Z,102220.22
2022-09-20T03:30:54.539Z,102219.09
2022-09-20T03:36:14.112Z,102221.69
2022-09-20T03:41:44.978Z,102215.25
2022-09-20T03:46:48.216Z,102212.09
2022-09-20T03:52:40.757Z,102212.25
2022-09-20T03:57:47.874Z,102211.25
2022-09-20T04:03:11.045Z,102214.88
2022-09-20T04:08:18.470Z,102218.47
2022-09-20T04:13:32.112Z,102212.00
2022-09-20T04:18:42.781Z,102216.47
2022-09-20T04:24:00.396Z,102226.09
2022-09-20T04:29:32.006Z,102228.69
2022-09-20T04:34:58.506Z,102237.94
2022-09-20T04:40:14.941Z,102241.44
2022-09-20T04:45:21.982Z,102240.34
2022-09-20T04:50:58.861Z,102250.00
2022-09-20T04:56:14.658Z,102249.28
2022-09-20T05:02:12.042Z,102246.13
2022-09-20T05:07:35.442Z,102248.44
2022-09-20T05:13:21.964Z,102254.50
2022-09-20T05:18:38.057Z,102235.19
2022-09-20T05:23:45.241Z,102242.25
2022-09-20T05:28:57.253Z,102242.53
2022-09-20T05:34:25.704Z,102237.38
2022-09-20T05:39:45.701Z,102245.16
2022-09-20T05:45:07.675Z,102254.66
2022-09-20T05:50:39.335Z,102250.59
2022-09-20T05:56:08.810Z,102255.47
2022-09-20T06:01:50.943Z,102272.56
2022-09-20T06:07:18.465Z,102273.00
2022-09-20T06:12:26.080Z,102288.72
2022-09-20T06:17:39.454Z,102302.59
2022-09-20T06:22:51.458Z,102318.28
2022-09-20T06:28:26.200Z,102331.53
2022-09-20T06:33:28.934Z,102330.06
2022-09-20T06:39:09.641Z,102324.75
2022-09-20T06:44:11.106Z,102321.28
2022-09-20T06:49:12.541Z,102312.22
2022-09-20T06:54:20.256Z,102320.16
2022-09-20T06:59:21.940Z,102322.63
2022-09-20T07:04:26.643Z,102316.41
2022-09-20T07:09:28.229Z,102313.25
2022-09-20T07:14:29.713Z,102308.09
2022-09-20T07:19:31.262Z,102294.97
2022-09-20T07:24:32.762Z,102303.78
2022-09-20T07:29:35.256Z,102308.84
2022-09-20T07:34:36.748Z,102309.13
2022-09-20T07:39:38.349Z,102319.34
2022-09-20T07:44:43.355Z,102317.44
2022-09-20T07:49:44.823Z,102322.72
2022-09-20T07:54:47.161Z,102327.31
2022-09-20T07:59:48.637Z,102337.41
2022-09-20T08:04:50.145Z,102345.47
2022-09-20T08:09:51.612Z,102346.91
2022-09-20T08:14:53.612Z,102345.56
2022-09-20T08:19:55.113Z,102345.84
2022-09-20T08:24:56.582Z,102353.28
2022-09-20T08:29:58.013Z,102359.44
2022-09-20T08:34:59.478Z,102361.84
2022-09-20T08:40:01.050Z,102366.25
2022-09-20T08:45:21.894Z,102374.31
2022-09-20T08:50:24.392Z,102377.69
2022-09-20T08:55:37.875Z,102380.38
2022-09-20T09:00:40.542Z,102379.25
2022-09-20T09:05:44.863Z,102374.72
2022-09-20T09:10:54.761Z,102367.75
2022-09-20T09:16:00.278Z,102373.00
2022-09-20T09:21:04.934Z,102368.50
2022-09-20T09:26:15.545Z,102372.56
2022-09-20T09:31:25.871Z,102378.69
2022-09-20T09:36:27.783Z,102373.59
2022-09-20T09:41:35.275Z,102379.69
2022-09-20T09:46:39.445Z,102385.94
2022-09-20T09:51:43.277Z,102389.56
2022-09-20T09:57:15.752Z,102388.53
2022-09-20T10:02:49.576Z,102391.78
2022-09-20T10:08:18.345Z,102389.66
2022-09-20T10:13:40.658Z,102397.53
2022-09-20T10:19:01.123Z,102383.47
2022-09-20T10:24:30.960Z,102389.63
2022-09-20T10:29:41.851Z,102382.44
2022-09-20T10:34:49.146Z,102384.97
2022-09-20T10:40:06.923Z,102394.59
2022-09-20T10:45:55.960Z,102395.81
2022-09-20T10:50:58.262Z,102401.56
2022-09-20T10:56:23.994Z,102402.78
2022-09-20T11:01:41.429Z,102394.28
2022-09-20T11:06:51.809Z,102404.69
2022-09-20T11:12:06.659Z,102396.84
2022-09-20T11:17:25.458Z,102404.06
2022-09-20T11:22:32.585Z,102419.13
2022-09-20T11:27:46.592Z,102418.06
2022-09-20T11:33:17.280Z,102421.28
2022-09-20T11:38:22.348Z,102422.34
2022-09-20T11:43:31.172Z,102426.44
2022-09-20T11:48:44.729Z,102423.91
2022-09-20T11:54:01.674Z,102434.94
2022-09-20T11:59:09.517Z,102433.22
2022-09-20T12:04:34.424Z,102434.75
2022-09-20T12:09:42.400Z,102439.72
2022-09-20T12:14:54.510Z,102434.44
2022-09-20T12:19:55.993Z,102441.66
2022-09-20T12:25:36.834Z,102440.34
2022-09-20T12:30:38.317Z,102433.25
2022-09-20T12:35:57.806Z,102438.75
2022-09-20T12:41:06.181Z,102430.19
2022-09-20T12:46:17.347Z,102421.59
2022-09-20T12:51:47.761Z,102420.38
2022-09-20T12:56:49.333Z,102417.47
2022-09-20T13:01:51.139Z,102420.94
2022-09-20T13:07:43.214Z,102412.97
2022-09-20T13:12:45.646Z,102411.56
2022-09-20T13:17:52.061Z,102406.38
2022-09-20T13:22:58.212Z,102411.03
2022-09-20T13:28:20.514Z,102419.81
2022-09-20T13:33:24.867Z,102420.06
2022-09-20T13:38:31.801Z,102424.50
2022-09-20T13:43:41.421Z,102422.63
2022-09-20T13:48:46.268Z,102417.78
2022-09-20T13:53:47.805Z,102422.97
2022-09-20T13:58:51.326Z,102425.22
2022-09-20T14:03:54.431Z,102417.81
2022-09-20T14:08:58.690Z,102426.59
2022-09-20T14:14:02.807Z,102426.28
2022-09-20T14:19:05.853Z,102423.47
2022-09-20T14:24:24.790Z,102430.19
2022-09-20T14:29:32.726Z,102436.19
2022-09-20T14:34:39.990Z,102428.22
2022-09-20T14:39:55.145Z,102426.66
2022-09-20T14:44:56.925Z,102427.16
2022-09-20T14:49:58.718Z,102426.72
2022-09-20T14:55:19.174Z,102422.19
2022-09-20T15:00:20.746Z,102427.09
2022-09-20T15:05:27.301Z,102425.88
2022-09-20T15:10:31.522Z,102423.44
2022-09-20T15:15:33.015Z,102423.59
2022-09-20T15:20:34.769Z,102422.25
2022-09-20T15:25:36.225Z,102424.63
2022-09-20T15:30:37.694Z,102421.66
2022-09-20T15:35:44.646Z,102416.31
2022-09-20T15:40:48.770Z,102416.47
2022-09-20T15:45:56.166Z,102413.34
2022-09-20T15:50:58.488Z,102423.97
2022-09-20T15:56:02.402Z,102418.94
2022-09-20T16:01:08.344Z,102419.88
2022-09-20T16:06:11.051Z,102423.09
2022-09-20T16:11:15.813Z,102425.28
2022-09-20T16:16:19.838Z,102421.97
2022-09-20T16:21:21.905Z,102432.44
2022-09-20T16:26:26.710Z,102428.75
2022-09-20T16:31:37.268Z,102431.41
2022-09-20T16:36:41.416Z,102435.47
2022-09-20T16:41:46.939Z,102447.97
2022-09-20T16:46:48.461Z,102451.06
2022-09-20T16:51:49.966Z,102450.69
2022-09-20T16:56:51.687Z,102464.78
2022-09-20T17:01:53.428Z,102461.13
2022-09-20T17:06:55.612Z,102462.47
2022-09-20T17:11:57.150Z,102468.16
2022-09-20T17:17:01.289Z,102469.19
2022-09-20T17:22:02.813Z,102476.44
2022-09-20T17:27:04.755Z,102470.97
2022-09-20T17:32:06.278Z,102488.47
2022-09-20T17:37:07.897Z,102487.03
2022-09-20T17:42:09.417Z,102488.19
2022-09-20T17:47:10.911Z,102504.47
2022-09-20T17:52:12.511Z,102499.88
2022-09-20T17:57:14.055Z,102496.72
2022-09-20T18:02:15.860Z,102502.31
2022-09-20T18:07:17.321Z,102509.50
2022-09-20T18:12:21.360Z,102512.13
2022-09-20T18:17:23.107Z,102513.56
2022-09-20T18:22:24.569Z,102505.16
2022-09-20T18:27:26.103Z,102512.94
2022-09-20T18:32:29.693Z,102523.72
2022-09-20T18:37:31.631Z,102527.03
2022-09-20T18:42:33.626Z,102537.38
2022-09-20T18:47:35.116Z,102534.50
2022-09-20T18:52:38.930Z,102534.81
2022-09-20T18:57:40.462Z,102539.59
2022-09-20T19:02:41.882Z,102555.47
2022-09-20T19:08:18.475Z,102552.00
2022-09-20T19:13:36.798Z,102556.44
2022-09-20T19:19:15.263Z,102563.91
2022-09-20T19:24:31.792Z,102561.09
2022-09-20T19:29:33.714Z,102559.03
2022-09-20T19:34:36.471Z,102564.91
2022-09-20T19:39:40.904Z,102564.34
2022-09-20T19:44:50.037Z,102572.81
2022-09-20T19:50:17.582Z,102575.81
2022-09-20T19:55:20.260Z,102576.34
2022-09-20T20:00:22.177Z,102588.09
2022-09-20T20:05:29.098Z,102588.03
2022-09-20T20:10:47.574Z,102583.50
2022-09-20T20:15:57.720Z,102591.50
2022-09-20T20:20:59.397Z,102592.31
2022-09-20T20:26:06.745Z,102607.66
2022-09-20T20:31:12.293Z,102602.09
2022-09-20T20:36:13.999Z,102602.72
2022-09-20T20:41:18.486Z,102602.41
2022-09-20T20:46:20.030Z,102618.91
2022-09-20T20:51:22.955Z,102612.47
2022-09-20T20:56:29.854Z,102617.78
2022-09-20T21:01:33.646Z,102622.16
2022-09-20T21:06:36.795Z,102622.63
2022-09-20T21:11:43.640Z,102624.81
2022-09-20T21:16:45.440Z,102630.78
2022-09-20T21:21:47.924Z,102633.97
2022-09-20T21:26:49.859Z,102625.38
2022-09-20T21:31:51.607Z,102635.66
2022-09-20T21:36:53.505Z,102634.38
2022-09-20T21:41:55.965Z,102634.28
2022-09-20T21:46:57.428Z,102638.00
2022-09-20T21:51:59.109Z,102633.28
2022-09-20T21:57:00.561Z,102643.06
2022-09-20T22:02:02.288Z,102635.63
2022-09-20T22:07:04.395Z,102643.69
2022-09-20T22:12:05.941Z,102644.06
2022-09-20T22:17:07.433Z,102651.66
2022-09-20T22:22:09.005Z,102648.22
2022-09-20T22:27:10.558Z,102651.94
2022-09-20T22:32:12.127Z,102641.78
2022-09-20T22:37:13.693Z,102647.50
2022-09-20T22:42:15.249Z,102652.63
2022-09-20T22:47:16.792Z,102646.06
2022-09-20T22:52:18.372Z,102644.88
2022-09-20T22:57:20.111Z,102654.69
2022-09-20T23:02:21.681Z,102658.06
2022-09-20T23:07:23.251Z,102659.09
2022-09-20T23:12:24.828Z,102667.53
2022-09-20T23:17:26.414Z,102650.88
2022-09-20T23:22:27.960Z,102654.00
2022-09-20T23:27:29.525Z,102657.34
2022-09-20T23:32:31.098Z,102656.72
2022-09-20T23:37:32.647Z,102657.94
2022-09-20T23:42:34.194Z,102656.34
2022-09-20T23:47:35.746Z,102654.63
2022-09-20T23:52:37.297Z,102659.31
2022-09-20T23:57:39.085Z,102660.31
